• Join FlightAware (Why Join?)
  • Login
  • US Flag 
05:06PM EST


 

Airport Tracker/Info


-or-


 

Live Flight TrackerFlight Track Log ✈ IFL511 ✈ 08-May-2013 ✈ MMMY / MTY - KPTK

Flight Track Log - Related Links

Times and Time Zones

All times are in EDT time to prevent confusion due to time zone crossing. See the IFL511 flight status page for this flight to view local times or setup timezone preferences in your user account.

Time Position Orientation Groundspeed Altitude Reporting Facility
EDT Latitude Longitude Course Direction KTS MPH feet Rate Location/Type
11:30AM 26.7222 -99.5531 North 366 421 29,300  Level Houston Center
11:31AM 26.8300 -99.5336 North 366 421 30,200 780 Climbing Houston Center
11:32AM 26.9328 -99.5139 10° North 373 429 31,000 720 Climbing Houston Center
11:33AM 27.0381 -99.4967 North 379 436 31,800 720 Climbing Houston Center
11:34AM 27.1569 -99.4742 10° North 382 440 32,600 780 Climbing Houston Center
11:35AM 27.2631 -99.4558 North 384 442 33,500 900 Climbing Houston Center
11:36AM 27.3675 -99.4375 North 381 438 34,500 720 Climbing Houston Center
11:37AM 27.4694 -99.4164 10° North 375 432 35,100 480 Climbing Houston Center
11:38AM 27.5664 -99.3464 33° Northeast 411 473 35,500 420 Climbing Houston Center
11:39AM 27.6653 -99.2606 38° Northeast 421 484 36,000 480 Climbing Houston Center
11:40AM 27.7722 -99.1711 36° Northeast 421 484 36,600 480 Climbing Houston Center
11:41AM 27.8667 -99.0925 36° Northeast 420 483 37,000 180 Climbing Houston Center
11:42AM 27.9608 -99.0142 36° Northeast 420 483 37,000  Level Houston Center
11:43AM 28.0572 -98.9325 37° Northeast 427 491 37,000  Level Houston Center
11:44AM 28.1547 -98.8514 36° Northeast 433 498 37,000  Level Houston Center
11:45AM 28.2531 -98.7667 37° Northeast 440 506 37,000  Level Houston Center
11:46AM 28.3711 -98.6658 37° Northeast 442 509 37,000  Level Houston Center
11:47AM 28.4728 -98.5822 36° Northeast 447 514 37,000  Level Houston Center
11:48AM 28.5728 -98.4969 37° Northeast 449 517 37,000  Level Houston Center
11:49AM 28.6714 -98.4117 37° Northeast 448 516 37,000  Level Houston Center
11:50AM 28.7883 -98.3133 36° Northeast 448 516 37,000  Level Houston Center
11:51AM 28.8886 -98.2278 37° Northeast 451 519 37,000  Level Houston Center
11:52AM 28.9964 -98.1333 37° Northeast 452 520 37,000  Level Houston Center
11:53AM 29.0969 -98.0478 37° Northeast 452 520 37,000  Level Houston Center
11:54AM 29.2039 -97.9553 37° Northeast 450 518 37,000  Level Houston Center
11:55AM 29.3042 -97.8689 37° Northeast 451 519 37,000  Level Houston Center
11:56AM 29.3967 -97.7869 38° Northeast 460 529 37,000  Level Houston Center
11:58AM 29.4983 -97.6986 37° Northeast 457 526 37,000  Level Houston Center
11:59AM 29.6194 -97.5925 37° Northeast 456 525 37,000  Level Houston Center
12:00PM 29.7211 -97.5031 37° Northeast 456 525 37,000  Level Houston Center
12:01PM 29.8233 -97.4133 37° Northeast 459 528 37,000  Level Houston Center
12:02PM 29.9244 -97.3244 37° Northeast 457 526 37,000  Level Houston Center
12:03PM 30.0253 -97.2353 37° Northeast 454 522 37,000  Level Houston Center
12:04PM 30.1375 -97.1356 38° Northeast 457 526 37,000  Level Houston Center
12:05PM 30.2386 -97.0469 37° Northeast 454 522 37,000  Level Houston Center
12:06PM 30.3400 -96.9561 38° Northeast 456 525 37,000  Level Houston Center
12:07PM 30.4414 -96.8658 38° Northeast 458 527 37,000  Level Houston Center
12:08PM 30.5603 -96.7586 38° Northeast 460 529 37,000  Level Houston Center
12:09PM 30.6594 -96.6692 38° Northeast 454 522 37,000  Level Houston Center
12:10PM 30.7614 -96.5778 38° Northeast 459 528 37,000  Level Houston Center
12:11PM 30.8622 -96.4872 38° Northeast 457 526 37,000  Level Houston Center
12:12PM 30.9636 -96.3953 38° Northeast 461 531 37,000  Level Houston Center
12:13PM 31.0639 -96.3044 38° Northeast 456 525 37,000  Level Houston Center
12:14PM 31.1819 -96.1983 38° Northeast 456 525 37,000  Level Houston Center
12:15PM 31.2822 -96.1069 38° Northeast 456 525 37,000  Level Houston Center
12:16PM 31.3914 -96.0075 38° Northeast 457 526 37,000  Level Houston Center
12:17PM 31.4917 -95.9147 38° Northeast 457 526 37,000  Level Houston Center
12:18PM 31.5925 -95.8214 38° Northeast 461 531 37,000  Level Houston Center
12:19PM 31.6936 -95.7283 38° Northeast 460 529 37,000  Level Houston Center
12:20PM 31.7958 -95.6339 38° Northeast 464 534 37,000  Level Houston Center
12:21PM 31.8989 -95.5439 37° Northeast 459 528 37,000  Level Fort Worth Center
12:22PM 31.9997 -95.4486 39° Northeast 459 528 37,000  Level Fort Worth Center
12:23PM 32.1006 -95.3533 39° Northeast 459 528 37,000  Level Fort Worth Center
12:24PM 32.1992 -95.2578 39° Northeast 459 528 37,000  Level Fort Worth Center
12:25PM 32.3019 -95.1669 37° Northeast 459 528 37,000  Level Fort Worth Center
12:26PM 32.4044 -95.0636 40° Northeast 459 528 37,000  Level Fort Worth Center
12:27PM 32.5111 -94.9597 39° Northeast 459 528 37,000  Level Fort Worth Center
12:28PM 32.6114 -94.8633 39° Northeast 454 522 37,000  Level Fort Worth Center
12:29PM 32.7117 -94.7692 38° Northeast 454 522 37,000  Level Fort Worth Center
12:30PM 32.8139 -94.6722 39° Northeast 459 528 37,000  Level Fort Worth Center
12:31PM 32.9122 -94.5775 39° Northeast 459 528 37,000  Level Fort Worth Center
12:32PM 33.0142 -94.4803 39° Northeast 459 528 37,000  Level Fort Worth Center
12:33PM 33.1164 -94.3875 37° Northeast 459 528 37,000  Level Fort Worth Center
12:34PM 33.1958 -94.3081 40° Northeast 459 528 37,000  Level Fort Worth Center
12:35PM 33.3061 -94.2047 38° Northeast 459 528 37,000  Level Fort Worth Center
12:36PM 33.4081 -94.1114 37° Northeast 459 528 37,000  Level Fort Worth Center
12:37PM 33.5117 -94.0103 39° Northeast 465 535 37,000  Level Fort Worth Center
12:38PM 33.6092 -93.9094 41° Northeast 465 535 37,000  Level Fort Worth Center
12:39PM 33.7086 -93.8106 40° Northeast 460 529 37,000  Level Fort Worth Center
12:41PM 33.9069 -93.6158 39° Northeast 464 534 37,000  Level Memphis Center
12:42PM 34.0075 -93.5169 39° Northeast 464 534 37,000  Level Memphis Center
12:43PM 34.1039 -93.4225 39° Northeast 464 534 37,000  Level Memphis Center
12:44PM 34.2022 -93.3231 40° Northeast 459 528 37,000  Level Memphis Center
12:45PM 34.3028 -93.2233 39° Northeast 459 528 37,000  Level Memphis Center
12:46PM 34.3903 -93.1283 42° Northeast 465 535 37,000  Level Memphis Center
12:47PM 34.4864 -93.0356 38° Northeast 460 529 37,000  Level Memphis Center
12:48PM 34.5844 -92.9378 39° Northeast 460 529 37,000  Level Memphis Center
12:49PM 34.6844 -92.8347 40° Northeast 454 522 37,000  Level Memphis Center
12:50PM 34.7803 -92.7389 39° Northeast 459 528 37,000  Level Memphis Center
12:51PM 34.8803 -92.6378 40° Northeast 459 528 37,000  Level Memphis Center
12:52PM 34.9781 -92.5367 40° Northeast 459 528 37,000  Level Memphis Center
12:53PM 35.0778 -92.4378 39° Northeast 459 528 37,000  Level Memphis Center
12:54PM 35.1753 -92.3361 40° Northeast 459 528 37,000  Level Memphis Center
12:55PM 35.2750 -92.2342 40° Northeast 465 535 37,000  Level Memphis Center
12:56PM 35.3703 -92.1319 41° Northeast 465 535 37,000  Level Memphis Center
12:57PM 35.4697 -92.0319 39° Northeast 465 535 37,000  Level Memphis Center
12:58PM 35.5756 -91.9192 41° Northeast 460 529 37,000  Level Memphis Center
12:59PM 35.6747 -91.8189 39° Northeast 460 529 37,000  Level Memphis Center
01:00PM 35.7717 -91.7156 41° Northeast 460 529 37,000  Level Memphis Center
01:01PM 35.8686 -91.6172 39° Northeast 460 529 37,000  Level Memphis Center
01:02PM 35.9594 -91.5161 42° Northeast 454 522 37,000  Level Memphis Center
01:03PM 36.0542 -91.4172 40° Northeast 447 514 37,000  Level Memphis Center
01:04PM 36.1486 -91.3131 42° Northeast 440 506 37,000  Level Memphis Center
01:05PM 36.2453 -91.2114 40° Northeast 445 512 37,000  Level Memphis Center
01:06PM 36.3419 -91.1092 40° Northeast 445 512 37,000  Level Memphis Center
01:07PM 36.4383 -91.0069 40° Northeast 445 512 37,000  Level Memphis Center
01:08PM 36.5328 -90.9069 40° Northeast 450 518 37,000  Level Memphis Center
01:09PM 36.6289 -90.8017 41° Northeast 450 518 37,000  Level Memphis Center
01:10PM 36.7253 -90.6986 41° Northeast 450 518 37,000  Level Memphis Center
01:12PM 36.8803 -90.5289 41° Northeast 451 519 37,000  Level Kansas City Center
01:13PM 36.9750 -90.4244 41° Northeast 451 519 37,000  Level Kansas City Center
01:14PM 37.0683 -90.3219 41° Northeast 448 516 37,000  Level Kansas City Center
01:15PM 37.1614 -90.2186 41° Northeast 444 511 37,000  Level Kansas City Center
01:16PM 37.2553 -90.1153 41° Northeast 446 513 37,000  Level Kansas City Center
01:17PM 37.3475 -90.0128 41° Northeast 444 511 37,000  Level Kansas City Center
01:18PM 37.4597 -89.8881 41° Northeast 444 511 37,000  Level Kansas City Center
01:19PM 37.5531 -89.7839 41° Northeast 445 512 37,000  Level Kansas City Center
01:20PM 37.6456 -89.6811 41° Northeast 448 516 37,000  Level Kansas City Center
01:21PM 37.7369 -89.5761 42° Northeast 448 516 37,000  Level Kansas City Center
01:22PM 37.8386 -89.4617 42° Northeast 447 514 37,000  Level Kansas City Center
01:23PM 37.9389 -89.3500 41° Northeast 448 516 37,000  Level Kansas City Center
01:24PM 38.0306 -89.2461 42° Northeast 445 512 37,000  Level Kansas City Center
01:25PM 38.1289 -89.1333 42° Northeast 444 511 37,000  Level Kansas City Center
01:26PM 38.2197 -89.0289 42° Northeast 443 510 37,000  Level Kansas City Center
01:27PM 38.3050 -88.9294 42° Northeast 443 510 37,000  Level Kansas City Center
01:28PM 38.4086 -88.8119 42° Northeast 443 510 37,000  Level Kansas City Center
01:29PM 38.5058 -88.6989 42° Northeast 441 507 37,000  Level Kansas City Center
01:30PM 38.5861 -88.6025 43° Northeast 444 511 37,000  Level Kansas City Center
01:32PM 38.6792 -88.4947 42° Northeast 446 513 37,000  Level Kansas City Center
01:33PM 38.7714 -88.3872 42° Northeast 446 513 37,000  Level Kansas City Center
01:34PM 38.8828 -88.2561 42° Northeast 447 514 37,000  Level Kansas City Center
01:34PM 38.9378 -88.1917 42° Northeast 449 517 37,000  Level Indianapolis Center
01:35PM 39.0300 -88.0811 43° Northeast 450 518 37,000  Level Indianapolis Center
01:36PM 39.1233 -87.9725 42° Northeast 450 518 37,000  Level Indianapolis Center
01:37PM 39.1614 -87.9261 43° Northeast 450 518 37,000  Level Kansas City Center
01:37PM 39.2156 -87.8608 43° Northeast 452 520 37,000  Level Indianapolis Center
01:38PM 39.3261 -87.7269 43° Northeast 452 520 37,000  Level Indianapolis Center
01:39PM 39.4206 -87.6136 43° Northeast 454 522 37,000 -540 Level Indianapolis Center
01:40PM 39.5167 -87.5019 42° Northeast 461 531 35,900 -1,020 Descending Indianapolis Center
01:42PM 39.6133 -87.3828 44° Northeast 475 547 35,000 -480 Descending Indianapolis Center
01:43PM 39.6992 -87.2586 48° Northeast 468 539 35,000  Level Indianapolis Center
01:44PM 39.7786 -87.1294 51° Northeast 461 531 35,000  Level Indianapolis Center
01:45PM 39.8606 -87.0017 50° Northeast 460 529 35,000  Level Indianapolis Center
01:46PM 39.9417 -86.8736 50° Northeast 457 526 35,000  Level Indianapolis Center
01:47PM 40.0222 -86.7450 51° Northeast 457 526 35,000  Level Indianapolis Center
01:48PM 40.1197 -86.5908 50° Northeast 457 526 35,000  Level Indianapolis Center
01:48PM 40.1681 -86.5142 50° Northeast 455 524 35,000  Level Chicago Center
01:49PM 40.2483 -86.3867 50° Northeast 453 521 35,000  Level Chicago Center
01:50PM 40.3364 -86.2700 45° Northeast 450 518 35,000  Level Chicago Center
01:51PM 40.4275 -86.1594 43° Northeast 448 516 35,000 -780 Level Chicago Center
01:52PM 40.5186 -86.0461 43° Northeast 449 517 33,400 -1,800 Descending Chicago Center
01:53PM 40.6125 -85.9300 43° Northeast 460 529 31,400 -2,040 Descending Chicago Center
01:54PM 40.7089 -85.8097 43° Northeast 459 528 29,300 -2,040 Descending Chicago Center
01:56PM 40.8000 -85.6936 44° Northeast 456 525 27,300 -2,100 Descending Chicago Center
01:57PM 40.9072 -85.5594 43° Northeast 445 512 25,000 -2,100 Descending Chicago Center
01:58PM 40.9931 -85.4497 44° Northeast 435 501 23,000 -1,860 Descending Chicago Center
01:59PM 41.0783 -85.3417 44° Northeast 428 493 21,200 -1,020 Descending Chicago Center
02:00PM 41.1650 -85.2286 44° Northeast 437 503 21,000 -120 Descending Chicago Center
02:01PM 41.2486 -85.1197 44° Northeast 429 494 21,000  Level Chicago Center
02:02PM 41.3706 -85.0331 28° Northeast 423 487 21,000 -120 Level Chicago Center
02:03PM 41.4836 -84.9928 15° North 423 487 20,800 -1,080 Descending Chicago Center
02:04PM 41.5983 -84.9475 16° North 432 497 18,800 -2,100 Descending Chicago Center
02:04PM 41.6417 -84.9322 15° North 426 490 18,000 -2,100 Descending Cleveland Center
02:05PM 41.7406 -84.8581 29° Northeast 399 459 16,100 -1,980 Descending Cleveland Center
02:06PM 41.7847 -84.7300 65° Northeast 358 412 14,100 -2,040 Descending Cleveland Center
02:07PM 41.8247 -84.6044 67° East 358 412 12,100 -1,980 Descending Cleveland Center
02:08PM 41.8644 -84.4786 67° East 358 412 10,200 -1,500 Descending Cleveland Center
02:08PM 41.8764 -84.4347 70° East 364 419 10,100 -240 Descending Cleveland Center
02:09PM 41.8950 -84.3772 66° East 336 387 10,000 -120 Descending Cleveland Center
02:10PM 41.9322 -84.2622 66° East 315 362 10,000  Level Cleveland Center
02:11PM 41.9669 -84.1553 66° East 302 348 10,000 -60 Level Cleveland Center
02:12PM 42.0250 -84.0969 37° Northeast 273 314 9,900 -1,020 Descending Cleveland Center
02:13PM 42.0925 -84.0700 16° North 254 292 7,900 -1,860 Descending Cleveland Center
02:14PM 42.1747 -84.0381 16° North 282 325 6,100 -960 Descending Cleveland Center
02:15PM 42.2511 -83.9972 22° Northeast 278 320 6,000 -60 Descending Cleveland Center
02:16PM 42.3167 -83.9642 20° North 262 302 6,000  Level Cleveland Center
02:17PM 42.3803 -83.9283 23° Northeast 262 302 6,000  Level Cleveland Center
02:18PM 42.4544 -83.8900 21° North 258 297 6,000 -60 Level Cleveland Center
02:19PM 42.5203 -83.8456 26° Northeast 247 284 5,900 -840 Descending Cleveland Center
02:20PM 42.5597 -83.7800 51° Northeast 241 277 4,400 -1,140 Descending Cleveland Center
02:21PM 42.5992 -83.7031 55° Northeast 240 276 3,700 -660 Descending Cleveland Center
02:22PM 42.6364 -83.6369 53° Northeast 223 257 3,100 -360 Descending Cleveland Center
02:23PM 42.6650 -83.5819 55° Northeast 131 151 3,000 -300 Descending Cleveland Center
02:24PM 42.6600 -83.5336 98° East 141 162 2,500 -720 Descending Cleveland Center
02:25PM 42.6594 -83.4686 91° East 173 199 1,600 -900 Descending Cleveland Center